Portada
METAR-TAF:

METAR-TAF

Aeropuertos :

Murcia, España

Base Aérea de Alcantarilla

latitud: 37-57N, longitud: 001-14W, altitud: 75 m

Observación

El informe se hizo hace 8 horas y 51 minutos, a las 18:00 UTC
Viento 12 kt del este-noreste
Temperatura 16°C
Humedad 68%
Presión 1019 hPa
Visibilidad 10 km o más
Escasas nubes a una altura de 4000 ft

METAR: LERI 171800Z 06012KT 9999 FEW040 16/10 Q1019 NOSIG

Hora: 03:51 (02:51 UTC)

Pronóstico

El informe se hizo hace 51 minutos, a las 02:00 UTC
Pronóstico válido del 18 a las 03 UTC al 18 a las 12 UTC
Viento 2 kt con dirección variable
Visibilidad 10 km o más
Nubes dispersas a una altura de 4000 ft

TAF: LERI 180200Z 1803/1812 VRB02KT 9999 SCT040

Observaciones y pronósticos meteorológicos de más de 4000 aeropuertos (mensajes METAR y TAF).

Los puntos amarillos y rojos representan las estaciones disponibles.

Ponga el ratón en el punto deseado para ver el nombre de la estación.

Haga clic para ver las observaciones y los pronósticos meteorológicos.

Para cambiar el mapa : haga clic en los botones verdes con una cruz de color negro para hacer un zoom, en el botón verde con un guión para alejar o en las flechas verdes para mapas adyacentes.


METAR-TAF: